sensor_id;sensor_type;location;lat;lon;timestamp;pressure;altitude;pressure_sealevel;temperature;humidity
9249;BME280;4660;41.768;26.198;2023-05-20T00:00:27;100999.72;;;14.16;100.00
9249;BME280;4660;41.768;26.198;2023-05-20T00:02:52;100988.00;;;14.08;100.00
9249;BME280;4660;41.768;26.198;2023-05-20T00:05:18;100989.41;;;14.20;100.00
9249;BME280;4660;41.768;26.198;2023-05-20T00:07:44;100991.66;;;14.24;100.00
9249;BME280;4660;41.768;26.198;2023-05-20T00:10:09;100992.19;;;14.28;100.00
9249;BME280;4660;41.768;26.198;2023-05-20T00:12:37;100986.84;;;14.36;100.00
9249;BME280;4660;41.768;26.198;2023-05-20T00:15:03;100983.88;;;14.47;100.00
9249;BME280;4660;41.768;26.198;2023-05-20T00:17:29;100982.78;;;14.58;100.00
9249;BME280;4660;41.768;26.198;2023-05-20T00:19:55;100976.56;;;14.66;100.00
9249;BME280;4660;41.768;26.198;2023-05-20T00:22:20;100976.38;;;14.67;100.00
9249;BME280;4660;41.768;26.198;2023-05-20T00:24:46;100962.00;;;14.67;100.00
9249;BME280;4660;41.768;26.198;2023-05-20T00:27:11;100969.13;;;14.68;100.00
9249;BME280;4660;41.768;26.198;2023-05-20T00:29:37;100945.13;;;14.47;100.00
9249;BME280;4660;41.768;26.198;2023-05-20T00:32:02;100966.84;;;14.55;100.00
9249;BME280;4660;41.768;26.198;2023-05-20T00:34:28;100962.41;;;14.46;100.00
9249;BME280;4660;41.768;26.198;2023-05-20T00:36:53;100970.53;;;14.28;100.00
9249;BME280;4660;41.768;26.198;2023-05-20T00:39:19;100967.41;;;14.15;100.00
9249;BME280;4660;41.768;26.198;2023-05-20T00:41:44;100968.41;;;14.14;100.00
9249;BME280;4660;41.768;26.198;2023-05-20T00:44:10;100963.66;;;14.08;100.00
9249;BME280;4660;41.768;26.198;2023-05-20T00:46:36;100953.00;;;13.88;100.00
9249;BME280;4660;41.768;26.198;2023-05-20T00:49:01;100949.50;;;13.96;100.00
9249;BME280;4660;41.768;26.198;2023-05-20T00:51:27;100955.38;;;13.91;100.00
9249;BME280;4660;41.768;26.198;2023-05-20T00:53:53;100962.53;;;13.74;100.00
9249;BME280;4660;41.768;26.198;2023-05-20T00:56:20;100984.84;;;13.76;100.00
9249;BME280;4660;41.768;26.198;2023-05-20T00:58:46;100971.25;;;13.86;100.00
9249;BME280;4660;41.768;26.198;2023-05-20T01:01:12;100978.13;;;13.81;100.00
9249;BME280;4660;41.768;26.198;2023-05-20T01:03:39;100983.78;;;13.87;100.00
9249;BME280;4660;41.768;26.198;2023-05-20T01:06:05;100981.28;;;13.76;100.00
9249;BME280;4660;41.768;26.198;2023-05-20T01:08:31;100972.78;;;13.71;100.00
9249;BME280;4660;41.768;26.198;2023-05-20T01:11:11;100979.81;;;13.82;100.00
9249;BME280;4660;41.768;26.198;2023-05-20T01:13:44;100980.34;;;13.85;100.00
9249;BME280;4660;41.768;26.198;2023-05-20T01:16:12;100966.84;;;13.67;100.00
9249;BME280;4660;41.768;26.198;2023-05-20T01:18:40;100971.88;;;13.62;100.00
9249;BME280;4660;41.768;26.198;2023-05-20T01:21:10;100965.06;;;13.76;100.00
9249;BME280;4660;41.768;26.198;2023-05-20T01:23:40;100962.19;;;13.77;100.00
9249;BME280;4660;41.768;26.198;2023-05-20T01:26:06;100946.41;;;13.65;100.00
9249;BME280;4660;41.768;26.198;2023-05-20T01:28:36;100940.72;;;13.76;100.00
9249;BME280;4660;41.768;26.198;2023-05-20T01:31:05;100949.28;;;13.89;100.00
9249;BME280;4660;41.768;26.198;2023-05-20T01:33:35;100938.47;;;13.89;100.00
9249;BME280;4660;41.768;26.198;2023-05-20T01:36:02;100951.88;;;13.73;100.00
9249;BME280;4660;41.768;26.198;2023-05-20T01:38:28;100947.78;;;13.69;100.00
9249;BME280;4660;41.768;26.198;2023-05-20T01:40:56;100963.59;;;13.82;100.00
9249;BME280;4660;41.768;26.198;2023-05-20T01:43:23;100963.44;;;13.83;100.00
9249;BME280;4660;41.768;26.198;2023-05-20T01:45:49;100958.41;;;13.88;100.00
9249;BME280;4660;41.768;26.198;2023-05-20T01:48:15;100960.75;;;13.83;100.00
9249;BME280;4660;41.768;26.198;2023-05-20T01:50:41;100947.25;;;13.65;100.00
9249;BME280;4660;41.768;26.198;2023-05-20T01:53:06;100947.78;;;13.69;100.00
9249;BME280;4660;41.768;26.198;2023-05-20T01:55:34;100945.34;;;13.84;100.00
9249;BME280;4660;41.768;26.198;2023-05-20T01:58:01;100945.28;;;13.93;100.00
9249;BME280;4660;41.768;26.198;2023-05-20T02:00:26;100957.16;;;14.00;100.00
9249;BME280;4660;41.768;26.198;2023-05-20T02:02:52;100951.38;;;13.95;100.00
9249;BME280;4660;41.768;26.198;2023-05-20T02:05:17;100945.84;;;13.79;100.00
9249;BME280;4660;41.768;26.198;2023-05-20T02:07:42;100945.22;;;13.67;100.00
9249;BME280;4660;41.768;26.198;2023-05-20T02:10:08;100938.19;;;13.57;100.00
9249;BME280;4660;41.768;26.198;2023-05-20T02:12:34;100925.84;;;13.72;100.00
9249;BME280;4660;41.768;26.198;2023-05-20T02:15:00;100939.19;;;13.73;100.00
9249;BME280;4660;41.768;26.198;2023-05-20T02:17:25;100941.91;;;13.56;100.00
9249;BME280;4660;41.768;26.198;2023-05-20T02:19:51;100935.72;;;13.63;100.00
9249;BME280;4660;41.768;26.198;2023-05-20T02:22:17;100939.75;;;13.59;100.00
9249;BME280;4660;41.768;26.198;2023-05-20T02:24:43;100926.94;;;13.61;100.00
9249;BME280;4660;41.768;26.198;2023-05-20T02:27:09;100929.56;;;13.53;100.00
9249;BME280;4660;41.768;26.198;2023-05-20T02:29:35;100945.63;;;13.55;100.00
9249;BME280;4660;41.768;26.198;2023-05-20T02:32:01;100950.19;;;13.72;100.00
9249;BME280;4660;41.768;26.198;2023-05-20T02:34:26;100949.94;;;13.65;100.00
9249;BME280;4660;41.768;26.198;2023-05-20T02:36:52;100961.97;;;13.71;100.00
9249;BME280;4660;41.768;26.198;2023-05-20T02:39:18;100957.41;;;13.71;100.00
9249;BME280;4660;41.768;26.198;2023-05-20T02:41:44;100953.31;;;13.85;100.00
9249;BME280;4660;41.768;26.198;2023-05-20T02:44:09;100963.44;;;13.83;100.00
9249;BME280;4660;41.768;26.198;2023-05-20T02:46:35;100951.31;;;13.87;100.00
9249;BME280;4660;41.768;26.198;2023-05-20T02:49:00;100950.53;;;13.77;100.00
9249;BME280;4660;41.768;26.198;2023-05-20T02:51:26;100953.50;;;13.66;100.00
9249;BME280;4660;41.768;26.198;2023-05-20T02:53:51;100946.94;;;13.68;100.00
9249;BME280;4660;41.768;26.198;2023-05-20T02:56:17;100948.78;;;13.68;100.00
9249;BME280;4660;41.768;26.198;2023-05-20T02:58:46;100941.91;;;13.56;100.00
9249;BME280;4660;41.768;26.198;2023-05-20T03:01:11;100949.09;;;13.65;100.00
9249;BME280;4660;41.768;26.198;2023-05-20T03:03:37;100953.44;;;13.58;100.00
9249;BME280;4660;41.768;26.198;2023-05-20T03:06:05;100935.59;;;13.47;100.00
9249;BME280;4660;41.768;26.198;2023-05-20T03:08:31;100966.31;;;13.64;100.00
9249;BME280;4660;41.768;26.198;2023-05-20T03:10:58;100973.03;;;13.60;100.00
9249;BME280;4660;41.768;26.198;2023-05-20T03:13:23;100970.63;;;13.57;100.00
9249;BME280;4660;41.768;26.198;2023-05-20T03:15:49;100975.34;;;13.55;100.00
9249;BME280;4660;41.768;26.198;2023-05-20T03:18:14;100966.78;;;13.41;100.00
9249;BME280;4660;41.768;26.198;2023-05-20T03:20:40;100953.19;;;13.33;100.00
9249;BME280;4660;41.768;26.198;2023-05-20T03:23:06;100971.31;;;13.41;100.00
9249;BME280;4660;41.768;26.198;2023-05-20T03:25:32;100977.59;;;13.41;100.00
9249;BME280;4660;41.768;26.198;2023-05-20T03:27:58;100982.09;;;13.51;100.00
9249;BME280;4660;41.768;26.198;2023-05-20T03:30:25;100984.63;;;13.52;100.00
9249;BME280;4660;41.768;26.198;2023-05-20T03:32:50;100983.78;;;13.52;100.00
9249;BME280;4660;41.768;26.198;2023-05-20T03:35:16;100989.00;;;13.71;100.00
9249;BME280;4660;41.768;26.198;2023-05-20T03:37:41;100979.13;;;13.62;100.00
9249;BME280;4660;41.768;26.198;2023-05-20T03:40:08;100983.00;;;13.77;100.00
9249;BME280;4660;41.768;26.198;2023-05-20T03:42:37;100981.00;;;13.79;100.00
9249;BME280;4660;41.768;26.198;2023-05-20T03:45:03;100995.97;;;13.91;100.00
9249;BME280;4660;41.768;26.198;2023-05-20T03:47:29;100987.69;;;13.93;100.00
9249;BME280;4660;41.768;26.198;2023-05-20T03:49:55;100984.47;;;13.89;100.00
9249;BME280;4660;41.768;26.198;2023-05-20T03:52:21;101003.00;;;14.02;100.00
9249;BME280;4660;41.768;26.198;2023-05-20T03:54:47;101005.94;;;14.09;100.00
9249;BME280;4660;41.768;26.198;2023-05-20T03:57:12;101001.66;;;14.06;100.00
9249;BME280;4660;41.768;26.198;2023-05-20T03:59:38;100998.88;;;14.16;100.00
9249;BME280;4660;41.768;26.198;2023-05-20T04:02:04;100992.13;;;14.20;100.00
9249;BME280;4660;41.768;26.198;2023-05-20T04:04:30;101011.84;;;14.30;100.00
9249;BME280;4660;41.768;26.198;2023-05-20T04:06:57;100987.63;;;14.28;100.00
9249;BME280;4660;41.768;26.198;2023-05-20T04:09:22;101005.00;;;14.44;100.00
9249;BME280;4660;41.768;26.198;2023-05-20T04:11:48;100995.09;;;14.35;100.00
9249;BME280;4660;41.768;26.198;2023-05-20T04:14:13;100997.44;;;14.47;100.00
9249;BME280;4660;41.768;26.198;2023-05-20T04:16:39;100999.81;;;14.50;100.00
9249;BME280;4660;41.768;26.198;2023-05-20T04:19:05;100999.06;;;14.66;100.00
9249;BME280;4660;41.768;26.198;2023-05-20T04:21:31;101006.44;;;14.82;100.00
9249;BME280;4660;41.768;26.198;2023-05-20T04:23:57;101009.81;;;14.84;100.00
9249;BME280;4660;41.768;26.198;2023-05-20T04:26:22;101000.28;;;14.72;100.00
9249;BME280;4660;41.768;26.198;2023-05-20T04:28:47;100999.50;;;14.88;100.00
9249;BME280;4660;41.768;26.198;2023-05-20T04:31:13;101011.22;;;14.96;100.00
9249;BME280;4660;41.768;26.198;2023-05-20T04:33:39;101002.72;;;14.91;100.00
9249;BME280;4660;41.768;26.198;2023-05-20T04:36:11;101005.47;;;14.99;100.00
9249;BME280;4660;41.768;26.198;2023-05-20T04:38:40;101003.78;;;14.98;100.00
9249;BME280;4660;41.768;26.198;2023-05-20T04:41:06;101000.25;;;15.06;100.00
9249;BME280;4660;41.768;26.198;2023-05-20T04:43:32;101008.06;;;15.09;100.00
9249;BME280;4660;41.768;26.198;2023-05-20T04:45:58;101005.41;;;15.25;100.00
9249;BME280;4660;41.768;26.198;2023-05-20T04:48:26;101020.00;;;15.32;100.00
9249;BME280;4660;41.768;26.198;2023-05-20T04:50:52;101016.78;;;15.29;100.00
9249;BME280;4660;41.768;26.198;2023-05-20T04:53:19;101020.69;;;15.42;100.00
9249;BME280;4660;41.768;26.198;2023-05-20T04:55:46;101019.38;;;15.55;100.00
9249;BME280;4660;41.768;26.198;2023-05-20T04:58:12;101012.31;;;15.70;100.00
9249;BME280;4660;41.768;26.198;2023-05-20T05:00:42;101007.25;;;15.75;100.00
9249;BME280;4660;41.768;26.198;2023-05-20T05:03:08;101008.94;;;15.84;100.00
9249;BME280;4660;41.768;26.198;2023-05-20T05:05:36;101014.19;;;15.86;100.00
9249;BME280;4660;41.768;26.198;2023-05-20T05:08:04;101024.72;;;15.97;100.00
9249;BME280;4660;41.768;26.198;2023-05-20T05:10:30;101022.84;;;16.06;100.00
9249;BME280;4660;41.768;26.198;2023-05-20T05:12:56;101020.00;;;16.15;100.00
9249;BME280;4660;41.768;26.198;2023-05-20T05:15:22;101021.31;;;16.28;100.00
9249;BME280;4660;41.768;26.198;2023-05-20T05:17:47;101031.19;;;16.37;100.00
9249;BME280;4660;41.768;26.198;2023-05-20T05:20:13;101036.59;;;16.37;100.00
9249;BME280;4660;41.768;26.198;2023-05-20T05:22:38;101040.34;;;16.44;100.00
9249;BME280;4660;41.768;26.198;2023-05-20T05:25:09;101037.25;;;16.47;100.00
9249;BME280;4660;41.768;26.198;2023-05-20T05:27:34;101032.53;;;16.33;100.00
9249;BME280;4660;41.768;26.198;2023-05-20T05:30:01;101030.84;;;16.32;100.00
9249;BME280;4660;41.768;26.198;2023-05-20T05:32:27;101021.31;;;16.44;100.00
9249;BME280;4660;41.768;26.198;2023-05-20T05:34:53;101017.91;;;16.50;100.00
9249;BME280;4660;41.768;26.198;2023-05-20T05:37:18;101031.47;;;16.66;100.00
9249;BME280;4660;41.768;26.198;2023-05-20T05:39:44;101025.38;;;16.72;100.00
9249;BME280;4660;41.768;26.198;2023-05-20T05:42:10;101036.06;;;16.49;100.00
9249;BME280;4660;41.768;26.198;2023-05-20T05:44:35;101016.91;;;16.35;100.00
9249;BME280;4660;41.768;26.198;2023-05-20T05:47:01;101032.00;;;16.54;100.00
9249;BME280;4660;41.768;26.198;2023-05-20T05:49:27;101026.72;;;16.60;100.00
9249;BME280;4660;41.768;26.198;2023-05-20T05:51:52;101027.22;;;16.80;100.00
9249;BME280;4660;41.768;26.198;2023-05-20T05:54:18;101029.41;;;16.76;100.00
9249;BME280;4660;41.768;26.198;2023-05-20T05:56:47;101032.47;;;16.82;100.00
9249;BME280;4660;41.768;26.198;2023-05-20T05:59:14;101023.31;;;16.74;100.00
9249;BME280;4660;41.768;26.198;2023-05-20T06:01:40;101023.97;;;16.76;100.00
9249;BME280;4660;41.768;26.198;2023-05-20T06:04:06;101039.41;;;16.84;100.00
9249;BME280;4660;41.768;26.198;2023-05-20T06:06:32;101029.34;;;17.01;100.00
9249;BME280;4660;41.768;26.198;2023-05-20T06:08:58;101031.59;;;17.37;100.00
9249;BME280;4660;41.768;26.198;2023-05-20T06:11:23;101024.09;;;17.39;100.00
9249;BME280;4660;41.768;26.198;2023-05-20T06:13:49;101028.25;;;17.49;100.00
9249;BME280;4660;41.768;26.198;2023-05-20T06:16:15;101030.50;;;17.46;100.00
9249;BME280;4660;41.768;26.198;2023-05-20T06:18:41;101016.13;;;17.60;100.00
9249;BME280;4660;41.768;26.198;2023-05-20T06:21:07;101019.81;;;17.75;100.00
9249;BME280;4660;41.768;26.198;2023-05-20T06:23:32;101013.69;;;17.73;100.00
9249;BME280;4660;41.768;26.198;2023-05-20T06:25:59;101010.91;;;18.04;100.00
9249;BME280;4660;41.768;26.198;2023-05-20T06:28:25;101019.78;;;18.21;100.00
9249;BME280;4660;41.768;26.198;2023-05-20T06:30:51;100971.44;;;18.23;100.00
9249;BME280;4660;41.768;26.198;2023-05-20T06:33:19;101006.25;;;18.28;100.00
9249;BME280;4660;41.768;26.198;2023-05-20T06:35:45;101009.56;;;18.23;100.00
9249;BME280;4660;41.768;26.198;2023-05-20T06:38:10;101000.69;;;18.21;100.00
9249;BME280;4660;41.768;26.198;2023-05-20T06:40:36;100991.81;;;18.42;100.00
9249;BME280;4660;41.768;26.198;2023-05-20T06:43:01;100998.91;;;18.51;100.00
9249;BME280;4660;41.768;26.198;2023-05-20T06:45:27;101004.84;;;18.84;100.00
9249;BME280;4660;41.768;26.198;2023-05-20T06:47:53;101001.66;;;19.10;100.00
9249;BME280;4660;41.768;26.198;2023-05-20T06:50:19;100983.13;;;19.42;100.00
9249;BME280;4660;41.768;26.198;2023-05-20T06:52:44;101004.19;;;19.84;100.00
9249;BME280;4660;41.768;26.198;2023-05-20T06:55:10;101000.47;;;19.92;100.00
9249;BME280;4660;41.768;26.198;2023-05-20T06:57:36;101003.03;;;19.93;100.00
9249;BME280;4660;41.768;26.198;2023-05-20T07:00:03;101002.63;;;19.96;100.00
9249;BME280;4660;41.768;26.198;2023-05-20T07:02:32;101004.56;;;20.24;100.00
9249;BME280;4660;41.768;26.198;2023-05-20T07:04:57;101000.00;;;20.31;100.00
9249;BME280;4660;41.768;26.198;2023-05-20T07:07:23;100995.56;;;20.51;100.00
9249;BME280;4660;41.768;26.198;2023-05-20T07:09:49;101003.69;;;20.73;100.00
9249;BME280;4660;41.768;26.198;2023-05-20T07:12:14;100993.59;;;20.73;100.00
9249;BME280;4660;41.768;26.198;2023-05-20T07:14:41;100997.81;;;20.76;100.00
9249;BME280;4660;41.768;26.198;2023-05-20T07:17:06;101014.34;;;20.96;100.00
9249;BME280;4660;41.768;26.198;2023-05-20T07:19:32;101012.97;;;20.78;100.00
9249;BME280;4660;41.768;26.198;2023-05-20T07:21:58;100994.94;;;20.56;100.00
9249;BME280;4660;41.768;26.198;2023-05-20T07:24:24;101010.06;;;20.52;100.00
9249;BME280;4660;41.768;26.198;2023-05-20T07:26:50;100989.69;;;20.54;100.00
9249;BME280;4660;41.768;26.198;2023-05-20T07:29:16;100999.34;;;20.57;100.00
9249;BME280;4660;41.768;26.198;2023-05-20T07:31:41;100984.72;;;20.65;100.00
9249;BME280;4660;41.768;26.198;2023-05-20T07:34:07;101002.03;;;20.78;100.00
9249;BME280;4660;41.768;26.198;2023-05-20T07:36:33;101008.59;;;20.84;100.00
9249;BME280;4660;41.768;26.198;2023-05-20T07:38:58;101015.72;;;20.85;100.00
9249;BME280;4660;41.768;26.198;2023-05-20T07:41:24;101002.22;;;20.77;100.00
9249;BME280;4660;41.768;26.198;2023-05-20T07:43:50;101022.13;;;20.99;100.00
9249;BME280;4660;41.768;26.198;2023-05-20T07:46:16;101033.34;;;21.10;100.00
9249;BME280;4660;41.768;26.198;2023-05-20T07:48:41;101031.88;;;21.14;100.00
9249;BME280;4660;41.768;26.198;2023-05-20T07:51:07;101021.63;;;21.23;100.00
9249;BME280;4660;41.768;26.198;2023-05-20T07:53:33;101009.06;;;21.35;100.00
9249;BME280;4660;41.768;26.198;2023-05-20T07:55:58;101005.31;;;21.36;100.00
9249;BME280;4660;41.768;26.198;2023-05-20T07:58:26;101001.00;;;21.27;100.00
9249;BME280;4660;41.768;26.198;2023-05-20T08:00:52;101026.81;;;21.46;100.00
9249;BME280;4660;41.768;26.198;2023-05-20T08:03:17;101022.16;;;21.40;100.00
9249;BME280;4660;41.768;26.198;2023-05-20T08:05:43;101014.88;;;21.19;100.00
9249;BME280;4660;41.768;26.198;2023-05-20T08:08:09;101029.81;;;21.16;100.00
9249;BME280;4660;41.768;26.198;2023-05-20T08:10:35;101025.78;;;21.12;100.00
9249;BME280;4660;41.768;26.198;2023-05-20T08:13:01;101026.19;;;21.09;100.00
9249;BME280;4660;41.768;26.198;2023-05-20T08:15:27;101017.31;;;21.07;100.00
9249;BME280;4660;41.768;26.198;2023-05-20T08:17:52;101028.09;;;21.09;100.00
9249;BME280;4660;41.768;26.198;2023-05-20T08:20:19;101022.38;;;21.04;100.00
9249;BME280;4660;41.768;26.198;2023-05-20T08:22:44;101036.69;;;21.06;100.00
9249;BME280;4660;41.768;26.198;2023-05-20T08:25:10;101026.03;;;20.83;100.00
9249;BME280;4660;41.768;26.198;2023-05-20T08:27:35;101047.81;;;20.70;100.00
9249;BME280;4660;41.768;26.198;2023-05-20T08:30:04;101047.66;;;20.50;100.00
9249;BME280;4660;41.768;26.198;2023-05-20T08:32:32;101037.63;;;20.50;100.00
9249;BME280;4660;41.768;26.198;2023-05-20T08:34:57;101011.25;;;20.21;100.00
9249;BME280;4660;41.768;26.198;2023-05-20T08:37:26;101036.56;;;20.30;100.00
9249;BME280;4660;41.768;26.198;2023-05-20T08:39:52;101014.31;;;20.12;100.00
9249;BME280;4660;41.768;26.198;2023-05-20T08:42:22;101039.09;;;20.31;100.00
9249;BME280;4660;41.768;26.198;2023-05-20T08:44:52;101032.78;;;20.31;100.00
9249;BME280;4660;41.768;26.198;2023-05-20T08:47:19;101011.50;;;20.26;100.00
9249;BME280;4660;41.768;26.198;2023-05-20T08:49:47;101032.31;;;20.27;100.00
9249;BME280;4660;41.768;26.198;2023-05-20T08:52:20;101018.22;;;20.24;100.00
9249;BME280;4660;41.768;26.198;2023-05-20T08:54:47;101019.66;;;20.20;100.00
9249;BME280;4660;41.768;26.198;2023-05-20T08:57:14;100995.63;;;20.09;100.00
9249;BME280;4660;41.768;26.198;2023-05-20T08:59:41;101009.38;;;20.22;100.00
9249;BME280;4660;41.768;26.198;2023-05-20T09:02:08;100998.53;;;20.35;100.00
9249;BME280;4660;41.768;26.198;2023-05-20T09:04:35;101018.50;;;20.35;100.00
9249;BME280;4660;41.768;26.198;2023-05-20T09:07:01;101006.72;;;20.35;100.00
9249;BME280;4660;41.768;26.198;2023-05-20T09:09:26;101006.34;;;20.38;100.00
9249;BME280;4660;41.768;26.198;2023-05-20T09:11:52;100999.16;;;20.30;100.00
9249;BME280;4660;41.768;26.198;2023-05-20T09:14:17;100997.53;;;20.36;100.00
9249;BME280;4660;41.768;26.198;2023-05-20T09:16:43;100995.50;;;20.45;100.00
9249;BME280;4660;41.768;26.198;2023-05-20T09:19:09;100998.22;;;20.73;100.00
9249;BME280;4660;41.768;26.198;2023-05-20T09:21:34;100990.25;;;20.78;100.00
9249;BME280;4660;41.768;26.198;2023-05-20T09:24:01;100980.13;;;20.72;100.00
9249;BME280;4660;41.768;26.198;2023-05-20T09:26:27;100984.38;;;20.81;100.00
9249;BME280;4660;41.768;26.198;2023-05-20T09:28:57;100990.28;;;20.84;100.00
9249;BME280;4660;41.768;26.198;2023-05-20T09:31:27;100998.34;;;20.99;100.00
9249;BME280;4660;41.768;26.198;2023-05-20T09:33:54;100994.16;;;21.03;100.00
9249;BME280;4660;41.768;26.198;2023-05-20T09:36:21;100991.09;;;21.20;100.00
9249;BME280;4660;41.768;26.198;2023-05-20T09:38:51;100992.75;;;21.21;100.00
9249;BME280;4660;41.768;26.198;2023-05-20T09:41:17;100959.38;;;21.32;100.00
9249;BME280;4660;41.768;26.198;2023-05-20T09:43:46;100982.38;;;21.57;100.00
9249;BME280;4660;41.768;26.198;2023-05-20T09:46:13;100972.13;;;21.79;100.00
9249;BME280;4660;41.768;26.198;2023-05-20T09:48:39;100964.94;;;21.85;100.00
9249;BME280;4660;41.768;26.198;2023-05-20T09:51:05;100946.44;;;21.87;100.00
9249;BME280;4660;41.768;26.198;2023-05-20T09:53:32;100967.97;;;22.16;100.00
9249;BME280;4660;41.768;26.198;2023-05-20T09:55:57;100964.56;;;22.21;100.00
9249;BME280;4660;41.768;26.198;2023-05-20T09:58:24;100958.84;;;22.42;100.00
9249;BME280;4660;41.768;26.198;2023-05-20T10:00:50;100959.22;;;22.72;100.00
9249;BME280;4660;41.768;26.198;2023-05-20T10:03:17;100956.03;;;22.89;100.00
9249;BME280;4660;41.768;26.198;2023-05-20T10:05:55;100965.72;;;22.91;100.00
9249;BME280;4660;41.768;26.198;2023-05-20T10:19:32;100971.94;;;23.25;100.00
9249;BME280;4660;41.768;26.198;2023-05-20T10:22:04;100959.19;;;22.86;100.00
9249;BME280;4660;41.768;26.198;2023-05-20T10:24:35;100956.69;;;22.71;100.00
9249;BME280;4660;41.768;26.198;2023-05-20T10:27:04;100952.22;;;22.76;100.00
9249;BME280;4660;41.768;26.198;2023-05-20T10:29:45;100947.56;;;22.84;100.00
9249;BME280;4660;41.768;26.198;2023-05-20T10:34:58;100954.75;;;22.78;100.00
9249;BME280;4660;41.768;26.198;2023-05-20T10:37:30;100950.56;;;22.75;100.00
9249;BME280;4660;41.768;26.198;2023-05-20T10:40:12;100952.25;;;22.70;100.00
9249;BME280;4660;41.768;26.198;2023-05-20T10:42:38;100957.50;;;22.91;100.00
9249;BME280;4660;41.768;26.198;2023-05-20T10:45:06;100940.88;;;22.86;100.00
9249;BME280;4660;41.768;26.198;2023-05-20T10:47:31;100954.38;;;22.61;100.00
9249;BME280;4660;41.768;26.198;2023-05-20T10:49:57;100948.06;;;22.67;100.00
9249;BME280;4660;41.768;26.198;2023-05-20T10:52:23;100935.81;;;22.57;100.00
9249;BME280;4660;41.768;26.198;2023-05-20T10:57:18;100937.53;;;22.58;100.00
9249;BME280;4660;41.768;26.198;2023-05-20T10:59:43;100938.78;;;22.55;100.00
9249;BME280;4660;41.768;26.198;2023-05-20T11:02:09;100941.75;;;22.53;100.00
9249;BME280;4660;41.768;26.198;2023-05-20T11:04:37;100947.63;;;22.57;100.00
9249;BME280;4660;41.768;26.198;2023-05-20T11:07:03;100934.38;;;22.41;100.00
9249;BME280;4660;41.768;26.198;2023-05-20T11:09:29;100942.59;;;22.54;100.00
9249;BME280;4660;41.768;26.198;2023-05-20T11:11:56;100943.41;;;22.61;100.00
9249;BME280;4660;41.768;26.198;2023-05-20T11:14:21;100930.56;;;22.48;100.00
9249;BME280;4660;41.768;26.198;2023-05-20T11:16:51;100948.06;;;22.67;100.00
9249;BME280;4660;41.768;26.198;2023-05-20T11:19:18;100928.03;;;22.53;100.00
9249;BME280;4660;41.768;26.198;2023-05-20T11:21:44;100941.75;;;22.53;100.00
9249;BME280;4660;41.768;26.198;2023-05-20T11:24:11;100926.00;;;22.22;100.00
9249;BME280;4660;41.768;26.198;2023-05-20T11:26:39;100947.91;;;21.96;100.00
9249;BME280;4660;41.768;26.198;2023-05-20T11:29:05;100929.75;;;21.75;100.00
9249;BME280;4660;41.768;26.198;2023-05-20T11:31:31;100929.72;;;21.55;100.00
9249;BME280;4660;41.768;26.198;2023-05-20T11:34:00;100928.03;;;21.41;100.00
9249;BME280;4660;41.768;26.198;2023-05-20T11:36:27;100940.06;;;21.60;100.00
9249;BME280;4660;41.768;26.198;2023-05-20T11:38:53;100935.47;;;21.74;100.00
9249;BME280;4660;41.768;26.198;2023-05-20T11:41:26;100943.47;;;21.82;100.00
9249;BME280;4660;41.768;26.198;2023-05-20T11:43:59;100941.16;;;21.72;100.00
9249;BME280;4660;41.768;26.198;2023-05-20T11:46:25;100938.81;;;21.62;100.00
9249;BME280;4660;41.768;26.198;2023-05-20T11:48:58;100939.00;;;21.54;100.00
9249;BME280;4660;41.768;26.198;2023-05-20T11:51:29;100947.41;;;21.46;100.00
9249;BME280;4660;41.768;26.198;2023-05-20T11:54:03;100826.78;;;20.67;100.00
9249;BME280;4660;41.768;26.198;2023-05-20T11:56:33;100864.13;;;21.07;100.00
9249;BME280;4660;41.768;26.198;2023-05-20T12:04:12;100854.88;;;21.02;100.00
9249;BME280;4660;41.768;26.198;2023-05-20T12:06:41;100911.81;;;21.39;100.00
9249;BME280;4660;41.768;26.198;2023-05-20T12:17:00;100930.19;;;21.92;100.00
9249;BME280;4660;41.768;26.198;2023-05-20T12:19:41;100814.91;;;21.27;100.00
9249;BME280;4660;41.768;26.198;2023-05-20T12:22:49;100924.50;;;22.00;100.00
9249;BME280;4660;41.768;26.198;2023-05-20T12:25:26;100793.88;;;21.28;100.00
9249;BME280;4660;41.768;26.198;2023-05-20T12:35:39;100897.09;;;22.07;100.00
9249;BME280;4660;41.768;26.198;2023-05-20T12:38:29;100824.22;;;21.59;100.00
9249;BME280;4660;41.768;26.198;2023-05-20T12:41:22;100869.91;;;21.92;100.00
9249;BME280;4660;41.768;26.198;2023-05-20T12:43:48;100853.06;;;22.02;100.00
9249;BME280;4660;41.768;26.198;2023-05-20T12:46:14;100810.72;;;21.84;100.00
9249;BME280;4660;41.768;26.198;2023-05-20T12:48:40;100800.56;;;21.98;100.00
9249;BME280;4660;41.768;26.198;2023-05-20T12:51:06;100753.38;;;21.96;100.00
9249;BME280;4660;41.768;26.198;2023-05-20T12:54:01;100798.56;;;22.45;100.00
9249;BME280;4660;41.768;26.198;2023-05-20T13:01:46;100842.75;;;23.13;100.00
9249;BME280;4660;41.768;26.198;2023-05-20T13:04:19;100803.44;;;22.88;100.00
9249;BME280;4660;41.768;26.198;2023-05-20T13:06:48;100823.63;;;23.00;100.00
9249;BME280;4660;41.768;26.198;2023-05-20T13:09:19;100728.13;;;22.45;100.00
9249;BME280;4660;41.768;26.198;2023-05-20T13:11:47;100761.34;;;22.62;100.00
9249;BME280;4660;41.768;26.198;2023-05-20T13:14:23;100834.59;;;23.00;100.00
9249;BME280;4660;41.768;26.198;2023-05-20T13:22:02;100813.78;;;22.86;100.00
9249;BME280;4660;41.768;26.198;2023-05-20T13:24:36;100813.41;;;22.75;100.00
9249;BME280;4660;41.768;26.198;2023-05-20T13:27:04;100811.56;;;22.63;100.00
9249;BME280;4660;41.768;26.198;2023-05-20T13:29:30;100802.06;;;22.65;100.00
9249;BME280;4660;41.768;26.198;2023-05-20T13:31:56;100785.81;;;22.64;100.00
9249;BME280;4660;41.768;26.198;2023-05-20T13:34:24;100799.13;;;22.60;100.00
9249;BME280;4660;41.768;26.198;2023-05-20T13:36:50;100798.75;;;22.50;100.00